Crown Princess — ZCDM6 — position and weather

sailwx.info

Track history (hours):
 
Tides and Currents Weather Stations Pressure Air Temp Water Temp Dewpoint Dewpoint Depression Visibility Wind Speed Wind Dir Waves Ship Positions

Crown Princess

Last reported at 2019-Jun-16 23:30 UTC. Time now 2019-Jun-17 18:40 UTC.
Position N 50°11' W 000°06'.

Type: Passenger vessel. MMSI: 310500000.

Date/timePositionNaut miles runAvg speedWind from/ knotsBaromVisibWave heightAir tempDewpointWater temp
2019-Jun-16 23:30N 50°11' W 000°06'815.4
2019-Jun-16 23:00N 50°19' W 000°04'814.9
2019-Jun-16 22:29N 50°27' W 000°02'815.0
2019-Jun-16 21:59N 50°29' E 000°09'714.4
2019-Jun-16 21:30N 50°32' E 000°19'816.5
2019-Jun-16 21:00N 50°34' E 000°32'816.4
2019-Jun-16 20:30N 50°38' E 000°43'816.8
2019-Jun-16 20:01N 50°43' E 000°54'917.6
2019-Jun-16 19:30N 50°48' E 001°05'918.5
2019-Jun-16 19:00N 50°54' E 001°17'1020.0
2019-Jun-16 18:30N 51°01' E 001°27'1020.3
2019-Jun-16 18:00N 51°08' E 001°39'1019.1
2019-Jun-16 17:30N 51°16' E 001°48'918.1
2019-Jun-16 17:00N 51°25' E 001°53'917.3
2019-Jun-16 16:31N 51°32' E 001°59'816.6
2019-Jun-16 16:00N 51°39' E 002°06'816.0
2019-Jun-16 15:30N 51°47' E 002°11'815.6
2019-Jun-16 15:00N 51°54' E 002°15'815.4
2019-Jun-16 14:30N 52°02' E 002°15'815.5
2019-Jun-16 14:00N 52°09' E 002°15'815.3
2019-Jun-16 13:30N 52°17' E 002°16'815.5
2019-Jun-16 13:00N 52°25' E 002°16'1649985.8
2019-Jun-16 13:00N 52°24' W 002°12'165341.1 180 / 321017.3 5.4 16.014.315.0
2019-Jun-16 12:30N 52°32' E 002°19'714.9
2019-Jun-16 12:00N 52°39' E 002°22'815.2
2019-Jun-16 11:30N 52°47' E 002°25'815.5
2019-Jun-16 11:00N 52°55' E 002°26'815.7
2019-Jun-16 10:30N 53°02' E 002°27'815.7
2019-Jun-16 09:59N 53°09' E 002°18'816.1
2019-Jun-16 09:30N 53°14' E 002°09'1216.0
2019-Jun-16 08:47N 53°23' E 001°56'416.3
2019-Jun-16 08:30N 53°26' E 001°51'816.0
2019-Jun-16 08:00N 53°33' E 001°44'816.2
2019-Jun-16 07:31N 53°40' E 001°39'815.9
2019-Jun-16 07:00N 53°48' E 001°34'816.4
2019-Jun-16 06:31N 53°55' E 001°29'1019.6
2019-Jun-16 06:01N 54°04' E 001°21'1019.7
2019-Jun-16 05:31N 54°12' E 001°12'1019.7
2019-Jun-16 05:00N 54°20' E 001°02'1019.8
2019-Jun-16 04:30N 54°28' E 000°52'1020.1
2019-Jun-16 04:00N 54°36' E 000°39'1320.1
2019-Jun-16 03:22N 54°45' E 000°25'3223.6
2019-Jun-16 02:00N 55°06' W 000°18'512.0 230 / 251008.5 5.4 12.010.913.0
2019-Jun-16 01:32N 55°11' W 000°18'119.7
2019-Jun-16 01:29N 55°12' W 000°19'919.7
2019-Jun-16 01:00N 55°19' W 000°31'1019.6
2019-Jun-16 00:30N 55°26' W 000°42'1019.4
2019-Jun-16 00:01N 55°33' W 000°54'1019.1
2019-Jun-15 23:30N 55°40' W 001°05'1019.1
2019-Jun-15 23:00N 55°47' W 001°17'918.5
2019-Jun-15 22:31N 55°52' W 001°31'816.5
2019-Jun-15 22:01N 55°57' W 001°44'5296.5
2019-Jun-15 22:00N 55°54' W 001°36'1428.5 180 / 141009.6 5.4 12.012.011.0
2019-Jun-15 21:30N 56°01' W 001°57'816.5
2019-Jun-15 21:01N 56°04' W 002°11'816.7
2019-Jun-15 20:30N 56°06' W 002°25'816.3
2019-Jun-15 20:01N 56°07' W 002°40'917.3
2019-Jun-15 19:30N 56°04' W 002°55'714.5
2019-Jun-15 19:00N 56°03' W 003°08'713.6
2019-Jun-15 18:31N 56°01' W 003°19'2 3.3
2019-Jun-15 17:57N 56°00' W 003°22'0 0.1
2019-Jun-15 17:30N 56°00' W 003°22'0 0.1
2019-Jun-15 16:51N 56°00' W 003°22'0 0.0
2019-Jun-15 15:09N 56°00' W 003°22'0 0.1
2019-Jun-15 15:00N 56°00' W 003°22'0 0.1
2019-Jun-15 14:24N 56°00' W 003°23'0 0.0
2019-Jun-15 14:00N 56°00' W 003°23'0 0.0
2019-Jun-15 13:27N 56°00' W 003°23'0 0.0
2019-Jun-15 13:00N 56°00' W 003°23'0 0.0
2019-Jun-15 12:30N 56°00' W 003°23'0 0.0
2019-Jun-15 12:00N 56°00' W 003°23'0 0.0
2019-Jun-15 11:30N 56°00' W 003°23'0 0.0
2019-Jun-15 11:00N 56°00' W 003°23'0 0.0
2019-Jun-15 10:30N 56°00' W 003°23'0 0.0
2019-Jun-15 09:57N 56°00' W 003°23'0 0.0
2019-Jun-15 09:30N 56°00' W 003°23'0 0.0
2019-Jun-15 09:00N 56°00' W 003°23'0 0.0
2019-Jun-15 08:30N 56°00' W 003°23'0 0.1
2019-Jun-15 08:00N 56°00' W 003°23'0 0.1
2019-Jun-15 06:54N 56°00' W 003°22'1 3.2
2019-Jun-15 06:29N 56°01' W 003°20'713.8
2019-Jun-15 06:00N 56°03' W 003°09'613.0
2019-Jun-15 05:30N 56°05' W 002°58'612.8
2019-Jun-15 05:00N 56°07' W 002°47'713.1
2019-Jun-15 04:30N 56°09' W 002°36'612.4
2019-Jun-15 04:00N 56°12' W 002°26'612.7
2019-Jun-15 03:30N 56°17' W 002°18'712.6
2019-Jun-15 02:59N 56°22' W 002°12'612.9
2019-Jun-15 02:30N 56°27' W 002°06'713.6
2019-Jun-15 02:00N 56°30' W 001°54'1123.6 110 / 221009.810.8 11.5 9.511.0
2019-Jun-15 01:33N 56°41' W 001°54'116.5
2019-Jun-15 01:31N 56°41' W 001°53'816.3
2019-Jun-15 01:01N 56°49' W 001°48'816.6
2019-Jun-15 00:31N 56°56' W 001°42'1019.4
2019-Jun-15 00:00N 57°05' W 001°35'1019.6
2019-Jun-14 23:31N 57°14' W 001°28'918.0
2019-Jun-14 23:01N 57°23' W 001°23'176.0
2019-Jun-14 23:00N 57°24' W 001°24'714.5 160 / 131011.010.8 10.510.511.0
2019-Jun-14 22:31N 57°30' W 001°31'917.7
2019-Jun-14 22:01N 57°37' W 001°40'1019.5
2019-Jun-14 21:30N 57°45' W 001°52'41 2.1
2019-Jun-14 02:00N 57°54' W 003°06'3210.0 210 / 24998.910.8 9.4 6.411.0
2019-Jun-13 22:46N 58°20' W 002°30'311.6
2019-Jun-13 22:30N 58°23' W 002°31'611.4
2019-Jun-13 22:00N 58°28' W 002°35'611.7
2019-Jun-13 21:30N 58°32' W 002°43'612.5
2019-Jun-13 21:00N 58°36' W 002°52'816.3
2019-Jun-13 20:30N 58°42' W 003°03'917.2
2019-Jun-13 20:00N 58°43' W 003°19'816.6
2019-Jun-13 19:30N 58°43' W 003°35'815.9
2019-Jun-13 19:00N 58°44' W 003°51'301888.5
2019-Jun-13 19:00N 58°42' W 004°48'2245.7 350 / 281000.2 2.2 9.0 9.010.0
2019-Jun-13 18:30N 58°44' W 004°05'815.6
2019-Jun-13 18:00N 58°45' W 004°20'815.5
2019-Jun-13 17:30N 58°45' W 004°35'815.8
2019-Jun-13 16:59N 58°45' W 004°51'2314.2
2019-Jun-13 15:22N 58°32' W 005°27'1614.8
2019-Jun-13 14:18N 58°17' W 005°40'514.6
2019-Jun-13 13:58N 58°13' W 005°44'714.6
2019-Jun-13 13:30N 58°07' W 005°50'1714.6
2019-Jun-13 12:21N 57°52' W 006°03'514.5
2019-Jun-13 12:00N 57°48' W 006°09'1914.5
2019-Jun-13 10:43N 57°38' W 006°39'1520.2
2019-Jun-13 10:00N 57°24' W 006°48'6312.6 360 / 251009.8 5.4 8.0 6.910.0
2019-Jun-13 05:00N 56°24' W 007°24'2810.7 020 / 451013.0 5.4 9.0 4.511.0
2019-Jun-13 02:23N 55°56' W 007°16'512.9
2019-Jun-13 02:01N 55°52' W 007°11'612.4
2019-Jun-13 01:30N 55°47' W 007°06'712.9
2019-Jun-13 01:00N 55°42' W 006°59'713.7
2019-Jun-13 00:30N 55°36' W 006°53'713.8
2019-Jun-13 00:00N 55°30' W 006°46'917.5
2019-Jun-12 23:30N 55°28' W 006°31'816.7
2019-Jun-12 23:00N 55°26' W 006°16'6452.7
2019-Jun-12 23:00N 55°24' W 006°06'2 3.9 020 / 301013.010.8 10.1 9.910.0
2019-Jun-12 22:30N 55°24' W 006°03'816.4
2019-Jun-12 22:00N 55°18' W 005°54'815.3
2019-Jun-12 21:30N 55°14' W 005°42'1515.1
2019-Jun-12 20:30N 55°19' W 005°17'914.9
2019-Jun-12 19:55N 55°23' W 005°03'914.1
2019-Jun-12 19:17N 55°32' W 004°59'518.1
2019-Jun-12 18:59N 55°37' W 004°60'816.8
2019-Jun-12 18:30N 55°45' W 004°59'918.0
2019-Jun-12 18:00N 55°54' W 004°56'612.6
2019-Jun-12 17:30N 55°58' W 004°47'1 2.5
2019-Jun-12 17:00N 55°57' W 004°46'0 0.0
2019-Jun-12 16:30N 55°57' W 004°46'0 0.0
2019-Jun-12 16:00N 55°57' W 004°46'0 0.0
2019-Jun-12 15:30N 55°57' W 004°46'0 0.0
2019-Jun-12 15:00N 55°57' W 004°46'0 0.0
2019-Jun-12 14:30N 55°57' W 004°46'0 0.0
2019-Jun-12 14:00N 55°57' W 004°46'0 0.0
2019-Jun-12 13:30N 55°57' W 004°46'0 0.0
2019-Jun-12 13:00N 55°57' W 004°46'0 0.0
2019-Jun-12 12:30N 55°57' W 004°46'0 0.0
2019-Jun-12 12:00N 55°57' W 004°46'0 0.0
2019-Jun-12 11:30N 55°57' W 004°46'0 0.0
2019-Jun-12 11:00N 55°57' W 004°46'0 0.0
2019-Jun-12 10:30N 55°57' W 004°46'0 0.0
2019-Jun-12 10:00N 55°57' W 004°46'0 0.0
2019-Jun-12 09:30N 55°57' W 004°46'0 0.0
2019-Jun-12 09:00N 55°57' W 004°46'0 0.0
2019-Jun-12 08:30N 55°57' W 004°46'0 0.0
2019-Jun-12 08:00N 55°57' W 004°46'0 0.0
2019-Jun-12 07:30N 55°57' W 004°46'0 0.0
2019-Jun-12 07:00N 55°57' W 004°46'0 0.0
2019-Jun-12 06:30N 55°57' W 004°46'0 0.0
2019-Jun-12 06:01N 55°57' W 004°46'1 1.6
2019-Jun-12 05:30N 55°58' W 004°47'510.1
2019-Jun-12 05:00N 55°56' W 004°55'917.6
2019-Jun-12 04:30N 55°47' W 004°58'714.3
2019-Jun-12 04:00N 55°40' W 004°59'612.9
2019-Jun-12 03:30N 55°33' W 004°58'713.8
2019-Jun-12 02:59N 55°26' W 004°59'1313.4
2019-Jun-12 02:01N 55°17' W 005°14'5161.2
2019-Jun-12 02:00N 55°12' W 005°12'612.1 030 / 231018.410.8 12.1 6.714.0
2019-Jun-12 01:28N 55°12' W 005°23'714.1
2019-Jun-12 00:59N 55°11' W 005°35'613.2
2019-Jun-12 00:31N 55°06' W 005°40'714.1
2019-Jun-12 00:00N 55°00' W 005°32'713.9
2019-Jun-11 23:30N 54°55' W 005°24'714.4
2019-Jun-11 23:00N 54°48' W 005°19'715.1
2019-Jun-11 22:30N 54°43' W 005°11'4 8.7
2019-Jun-11 22:01N 54°43' W 005°18'714.5
2019-Jun-11 21:30N 54°48' W 005°26'816.3
2019-Jun-11 21:00N 54°44' W 005°38'713.8
2019-Jun-11 20:31N 54°41' W 005°49'4 7.4
2019-Jun-11 19:59N 54°38' W 005°53'0 0.0
2019-Jun-11 19:29N 54°38' W 005°53'0 0.0
2019-Jun-11 18:59N 54°38' W 005°53'0 0.0
2019-Jun-11 18:29N 54°38' W 005°53'0 0.0
2019-Jun-11 17:59N 54°38' W 005°53'0 0.0
2019-Jun-11 17:29N 54°38' W 005°53'0 0.0
2019-Jun-11 16:59N 54°38' W 005°53'0 0.0
2019-Jun-11 16:29N 54°38' W 005°53'0 0.0
2019-Jun-11 15:59N 54°38' W 005°53'0 0.0
2019-Jun-11 15:29N 54°38' W 005°53'0 0.0
2019-Jun-11 14:59N 54°38' W 005°53'0 0.0
2019-Jun-11 14:29N 54°38' W 005°53'0 0.0
2019-Jun-11 13:59N 54°38' W 005°53'0 0.0
2019-Jun-11 13:29N 54°38' W 005°53'0 0.0
2019-Jun-11 12:59N 54°38' W 005°53'0 0.0
2019-Jun-11 12:29N 54°38' W 005°53'0 0.0
2019-Jun-11 11:59N 54°38' W 005°53'0 0.0
2019-Jun-11 11:29N 54°38' W 005°53'0 0.0
2019-Jun-11 10:59N 54°38' W 005°53'0 0.0
2019-Jun-11 10:29N 54°38' W 005°53'0 0.0
2019-Jun-11 09:59N 54°38' W 005°53'0 0.0
2019-Jun-11 09:29N 54°38' W 005°53'0 0.0
2019-Jun-11 08:59N 54°38' W 005°53'0 0.0
2019-Jun-11 08:29N 54°38' W 005°53'0 0.0
2019-Jun-11 07:59N 54°38' W 005°53'0 0.0
2019-Jun-11 07:29N 54°38' W 005°53'0 0.0
2019-Jun-11 06:59N 54°38' W 005°53'0 0.0
2019-Jun-11 06:29N 54°38' W 005°53'0 0.0
2019-Jun-11 05:59N 54°38' W 005°53'1 1.7
2019-Jun-11 05:29N 54°38' W 005°52'611.7
2019-Jun-11 05:00N 54°42' W 005°45'612.9
2019-Jun-11 04:30N 54°44' W 005°35'816.7
2019-Jun-11 04:00N 54°44' W 005°20'815.8
2019-Jun-11 03:30N 54°38' W 005°12'714.5
2019-Jun-11 03:00N 54°32' W 005°06'714.8
2019-Jun-11 02:30N 54°25' W 005°01'713.3
2019-Jun-11 02:00N 54°18' W 005°04'2149.4
2019-Jun-11 02:00N 54°18' W 005°00'613.3 020 / 171020.010.8 12.010.113.0
2019-Jun-11 01:30N 54°13' W 005°07'610.9
2019-Jun-11 01:00N 54°08' W 005°11'3315.5
2019-Jun-10 22:51N 53°50' W 004°24'615.2
2019-Jun-10 22:29N 53°48' W 004°15'815.6
2019-Jun-10 22:00N 53°45' W 004°03'1019.1
2019-Jun-10 21:30N 53°41' W 003°49'918.3
2019-Jun-10 21:00N 53°37' W 003°35'917.4
2019-Jun-10 20:30N 53°33' W 003°22'612.2
2019-Jun-10 20:00N 53°31' W 003°12'511.0
2019-Jun-10 19:30N 53°29' W 003°04'5 9.0
2019-Jun-10 18:58N 53°24' W 003°00'0 0.0
2019-Jun-10 18:28N 53°24' W 003°00'0 0.0
2019-Jun-10 17:58N 53°24' W 003°00'0 0.0
2019-Jun-10 17:28N 53°24' W 003°00'0 0.0
2019-Jun-10 16:58N 53°24' W 003°00'0 0.0
2019-Jun-10 16:28N 53°24' W 003°00'0 0.0
2019-Jun-10 15:58N 53°24' W 003°00'0 0.0
2019-Jun-10 15:28N 53°24' W 003°00'0 0.0
2019-Jun-10 14:58N 53°24' W 003°00'0 0.0
2019-Jun-10 14:28N 53°24' W 003°00'0 0.0
2019-Jun-10 13:58N 53°24' W 003°00'0 0.0
2019-Jun-10 13:28N 53°24' W 003°00'0 0.0
2019-Jun-10 12:58N 53°24' W 003°00'0 0.0
2019-Jun-10 12:28N 53°24' W 003°00'0 0.0
2019-Jun-10 11:58N 53°24' W 003°00'0 0.0
2019-Jun-10 11:28N 53°24' W 003°00'0 0.0
2019-Jun-10 10:58N 53°24' W 003°00'0 0.0
2019-Jun-10 10:28N 53°24' W 003°00'0 0.0
2019-Jun-10 09:58N 53°24' W 003°00'0 0.0
2019-Jun-10 09:28N 53°24' W 003°00'1 2.9
2019-Jun-10 09:00N 53°26' W 003°01'510.5
2019-Jun-10 08:30N 53°30' W 003°06'5 9.4
2019-Jun-10 08:00N 53°31' W 003°14'612.9
2019-Jun-10 07:31N 53°31' W 003°24'815.8
2019-Jun-10 07:00N 53°31' W 003°38'917.6
2019-Jun-10 06:30N 53°31' W 003°53'917.6
2019-Jun-10 06:00N 53°31' W 004°07'917.4
2019-Jun-10 05:30N 53°31' W 004°22'3216.7
2019-Jun-10 03:34N 53°21' W 005°14'117.5
2019-Jun-10 03:30N 53°20' W 005°15'918.5
2019-Jun-10 03:00N 53°20' W 005°31'918.7
2019-Jun-10 02:30N 53°20' W 005°46'918.0
2019-Jun-10 02:00N 53°21' W 006°02'510.9
2019-Jun-10 01:30N 53°21' W 006°11'1 2.1
2019-Jun-10 00:54N 53°21' W 006°13'0 0.0
2019-Jun-10 00:24N 53°21' W 006°13'0 0.0
2019-Jun-09 23:54N 53°21' W 006°13'0 0.0
2019-Jun-09 23:21N 53°21' W 006°13'0 0.0
2019-Jun-09 22:58N 53°21' W 006°13'0 0.0
2019-Jun-09 22:28N 53°21' W 006°13'0 0.0
2019-Jun-09 21:58N 53°21' W 006°13'0 0.0
2019-Jun-09 21:30N 53°21' W 006°13'0 0.0
2019-Jun-09 21:00N 53°21' W 006°13'0 0.0
2019-Jun-09 20:30N 53°21' W 006°13'0 0.0
2019-Jun-09 20:00N 53°21' W 006°13'0 0.0
2019-Jun-09 19:30N 53°21' W 006°13'0 0.0
2019-Jun-09 19:00N 53°21' W 006°13'0 0.0
2019-Jun-09 18:24N 53°21' W 006°13'0 0.0
2019-Jun-09 17:54N 53°21' W 006°13'0 0.0
2019-Jun-09 17:21N 53°21' W 006°13'0 0.0
2019-Jun-09 16:51N 53°21' W 006°13'0 0.0
2019-Jun-09 16:28N 53°21' W 006°13'0 0.0
2019-Jun-09 15:58N 53°21' W 006°13'0 0.0
2019-Jun-09 15:28N 53°21' W 006°13'0 0.0
2019-Jun-09 14:58N 53°21' W 006°13'0 0.0
2019-Jun-09 14:30N 53°21' W 006°13'0 0.0
2019-Jun-09 14:00N 53°21' W 006°13'1 2.1
2019-Jun-09 13:30N 53°21' W 006°11'5 9.6
2019-Jun-09 13:00N 53°21' W 006°03'4 8.3
2019-Jun-09 12:30N 53°20' W 005°56'510.8
2019-Jun-09 12:00N 53°17' W 005°48'510.2
2019-Jun-09 11:30N 53°15' W 005°40'510.7
2019-Jun-09 11:00N 53°12' W 005°34'612.0
2019-Jun-09 10:30N 53°06' W 005°34'611.6
2019-Jun-09 10:00N 52°60' W 005°35'612.2
2019-Jun-09 09:30N 52°54' W 005°35'612.1
2019-Jun-09 09:00N 52°48' W 005°38'612.2
2019-Jun-09 08:30N 52°42' W 005°40'611.8
2019-Jun-09 08:00N 52°36' W 005°43'611.8
2019-Jun-09 07:30N 52°31' W 005°45'611.4
2019-Jun-09 07:00N 52°25' W 005°48'166.4
2019-Jun-09 07:00N 52°24' W 005°48'5 9.5 240 / 51019.310.8 16.513.911.0
2019-Jun-09 06:30N 52°20' W 005°51'510.9
2019-Jun-09 06:00N 52°15' W 005°54'510.9
2019-Jun-09 05:30N 52°10' W 005°58'510.8
2019-Jun-09 05:00N 52°05' W 006°03'1111.2
2019-Jun-09 04:00N 52°00' W 006°20'611.1
2019-Jun-09 03:30N 51°58' W 006°27'611.1
2019-Jun-09 03:00N 51°55' W 006°35'8 8.0
2019-Jun-09 02:00N 51°48' W 006°42'1126.5 270 / 121015.510.8 15.013.214.0
2019-Jun-09 01:36N 51°48' W 006°59'111.2
2019-Jun-09 01:31N 51°48' W 007°01'510.9
2019-Jun-09 01:00N 51°46' W 007°09'511.0
2019-Jun-09 00:30N 51°45' W 007°17'611.1
2019-Jun-09 00:00N 51°43' W 007°26'611.1
2019-Jun-08 23:30N 51°41' W 007°34'611.1
2019-Jun-08 23:01N 51°39' W 007°43'611.3
2019-Jun-08 22:30N 51°41' W 007°52'611.6
2019-Jun-08 22:00N 51°42' W 008°01'611.7
2019-Jun-08 21:30N 51°44' W 008°10'510.3
2019-Jun-08 21:00N 51°48' W 008°16'3 6.9
2019-Jun-08 20:30N 51°51' W 008°18'0 0.3
2019-Jun-08 20:00N 51°51' W 008°18'0 0.0
2019-Jun-08 19:28N 51°51' W 008°18'0 0.0
2019-Jun-08 19:00N 51°51' W 008°18'0 0.0
2019-Jun-08 18:30N 51°51' W 008°18'0 0.0
2019-Jun-08 18:00N 51°51' W 008°18'0 0.0
2019-Jun-08 17:30N 51°51' W 008°18'0 0.0
2019-Jun-08 17:00N 51°51' W 008°18'0 0.0
2019-Jun-08 16:30N 51°51' W 008°18'0 0.0
2019-Jun-08 16:00N 51°51' W 008°18'0 0.0
2019-Jun-08 15:30N 51°51' W 008°18'0 0.0
2019-Jun-08 15:00N 51°51' W 008°18'0 0.0
2019-Jun-08 14:30N 51°51' W 008°18'0 0.0
2019-Jun-08 14:00N 51°51' W 008°18'0 0.0
2019-Jun-08 13:30N 51°51' W 008°18'0 0.0
2019-Jun-08 13:00N 51°51' W 008°18'0 0.0
2019-Jun-08 12:30N 51°51' W 008°18'0 0.0
2019-Jun-08 12:00N 51°51' W 008°18'0 0.0
2019-Jun-08 11:30N 51°51' W 008°18'0 0.0
2019-Jun-08 11:00N 51°51' W 008°18'0 0.0
2019-Jun-08 10:30N 51°51' W 008°18'0 0.0
2019-Jun-08 10:00N 51°51' W 008°18'0 0.0
2019-Jun-08 09:30N 51°51' W 008°18'0 0.0
2019-Jun-08 09:00N 51°51' W 008°18'0 0.0
2019-Jun-08 08:30N 51°51' W 008°18'0 0.0
2019-Jun-08 08:00N 51°51' W 008°18'0 0.0
2019-Jun-08 07:30N 51°51' W 008°18'0 0.0
2019-Jun-08 07:00N 51°51' W 008°18'0 0.4
2019-Jun-08 06:31N 51°51' W 008°18'1 1.8
2019-Jun-08 06:01N 51°51' W 008°17'510.8
2019-Jun-08 05:30N 51°46' W 008°15'510.1
2019-Jun-08 05:00N 51°41' W 008°11'612.5
2019-Jun-08 04:30N 51°37' W 008°04'612.9
2019-Jun-08 04:00N 51°33' W 007°56'713.8
2019-Jun-08 03:30N 51°28' W 007°48'714.0
2019-Jun-08 03:01N 51°23' W 007°40'713.8
2019-Jun-08 02:30N 51°19' W 007°32'815.7
2019-Jun-08 02:00N 51°12' W 007°24'3611.9 290 / 331007.810.8 13.011.114.0
2019-Jun-07 23:00N 50°48' W 006°42'4010.6 290 / 301004.710.8 14.012.214.0
2019-Jun-07 19:14N 50°22' W 005°55'2293.3
2019-Jun-07 19:00N 50°00' W 005°48'49 7.2 320 / 401005.6 5.4 12.011.012.0
2019-Jun-07 12:17N 49°42' W 004°38'512.2
2019-Jun-07 11:53N 49°41' W 004°31'512.2
2019-Jun-07 11:27N 49°39' W 004°23'612.3
2019-Jun-07 11:00N 49°38' W 004°15'3182.0
2019-Jun-07 11:00N 49°36' W 004°12'4 7.9 110 / 20989.6 5.4 16.514.813.0
2019-Jun-07 10:31N 49°36' W 004°06'611.9
2019-Jun-07 10:00N 49°35' W 003°57'611.5
2019-Jun-07 09:30N 49°34' W 003°48'611.3
2019-Jun-07 09:00N 49°32' W 003°40'611.0
2019-Jun-07 08:30N 49°30' W 003°32'815.9
2019-Jun-07 08:00N 49°30' W 003°20'1015.9
2019-Jun-07 07:23N 49°27' W 003°05'616.9
2019-Jun-07 07:00N 49°26' W 002°55'816.2
2019-Jun-07 06:31N 49°24' W 002°43'714.5
2019-Jun-07 06:00N 49°23' W 002°32'2 4.6
2019-Jun-07 05:30N 49°25' W 002°29'3 5.9
2019-Jun-07 05:01N 49°22' W 002°32'510.6
2019-Jun-07 04:31N 49°24' W 002°40'612.0
2019-Jun-07 04:00N 49°26' W 002°48'510.5
2019-Jun-07 03:30N 49°29' W 002°55'612.7
2019-Jun-07 03:00N 49°35' W 002°56'612.8
2019-Jun-07 02:30N 49°42' W 002°57'713.6
2019-Jun-07 02:01N 49°48' W 002°58'816.0
2019-Jun-07 01:31N 49°56' W 002°58'918.3
2019-Jun-07 01:01N 49°59' W 002°44'917.9
2019-Jun-07 00:30N 50°02' W 002°31'816.9
2019-Jun-07 00:01N 50°04' W 002°18'816.0
2019-Jun-06 23:30N 50°07' W 002°06'815.3
2019-Jun-06 23:00N 50°10' W 001°56'714.7
2019-Jun-06 22:31N 50°13' W 001°45'  
Track history (hours):
 
Tides and Currents Weather Stations Pressure Air Temp Water Temp Dewpoint Dewpoint Depression Visibility Wind Speed Wind Dir Waves Ship Positions

Crown Princess

Last reported at 2019-Jun-16 23:30 UTC. Time now 2019-Jun-17 18:40 UTC.
Position N 50°11' W 000°06'.

Type: Passenger vessel. MMSI: 310500000.

Date/timePositionNaut miles runAvg speedWind from/ knotsBaromVisibWave heightAir tempDewpointWater temp
2019-Jun-16 23:30N 50°11' W 000°06'815.4
2019-Jun-16 23:00N 50°19' W 000°04'814.9
2019-Jun-16 22:29N 50°27' W 000°02'815.0
2019-Jun-16 21:59N 50°29' E 000°09'714.4
2019-Jun-16 21:30N 50°32' E 000°19'816.5
2019-Jun-16 21:00N 50°34' E 000°32'816.4
2019-Jun-16 20:30N 50°38' E 000°43'816.8
2019-Jun-16 20:01N 50°43' E 000°54'917.6
2019-Jun-16 19:30N 50°48' E 001°05'918.5
2019-Jun-16 19:00N 50°54' E 001°17'1020.0
2019-Jun-16 18:30N 51°01' E 001°27'1020.3
2019-Jun-16 18:00N 51°08' E 001°39'1019.1
2019-Jun-16 17:30N 51°16' E 001°48'918.1
2019-Jun-16 17:00N 51°25' E 001°53'917.3
2019-Jun-16 16:31N 51°32' E 001°59'816.6
2019-Jun-16 16:00N 51°39' E 002°06'816.0
2019-Jun-16 15:30N 51°47' E 002°11'815.6
2019-Jun-16 15:00N 51°54' E 002°15'815.4
2019-Jun-16 14:30N 52°02' E 002°15'815.5
2019-Jun-16 14:00N 52°09' E 002°15'815.3
2019-Jun-16 13:30N 52°17' E 002°16'815.5
2019-Jun-16 13:00N 52°25' E 002°16'1649985.8
2019-Jun-16 13:00N 52°24' W 002°12'165341.1 180 / 321017.3 5.4 16.014.315.0
2019-Jun-16 12:30N 52°32' E 002°19'714.9
2019-Jun-16 12:00N 52°39' E 002°22'815.2
2019-Jun-16 11:30N 52°47' E 002°25'815.5
2019-Jun-16 11:00N 52°55' E 002°26'815.7
2019-Jun-16 10:30N 53°02' E 002°27'815.7
2019-Jun-16 09:59N 53°09' E 002°18'816.1
2019-Jun-16 09:30N 53°14' E 002°09'1216.0
2019-Jun-16 08:47N 53°23' E 001°56'416.3
2019-Jun-16 08:30N 53°26' E 001°51'816.0
2019-Jun-16 08:00N 53°33' E 001°44'816.2
2019-Jun-16 07:31N 53°40' E 001°39'815.9
2019-Jun-16 07:00N 53°48' E 001°34'816.4
2019-Jun-16 06:31N 53°55' E 001°29'1019.6
2019-Jun-16 06:01N 54°04' E 001°21'1019.7
2019-Jun-16 05:31N 54°12' E 001°12'1019.7
2019-Jun-16 05:00N 54°20' E 001°02'1019.8
2019-Jun-16 04:30N 54°28' E 000°52'1020.1
2019-Jun-16 04:00N 54°36' E 000°39'1320.1
2019-Jun-16 03:22N 54°45' E 000°25'3223.6
2019-Jun-16 02:00N 55°06' W 000°18'512.0 230 / 251008.5 5.4 12.010.913.0
2019-Jun-16 01:32N 55°11' W 000°18'119.7
2019-Jun-16 01:29N 55°12' W 000°19'919.7
2019-Jun-16 01:00N 55°19' W 000°31'1019.6
2019-Jun-16 00:30N 55°26' W 000°42'1019.4
2019-Jun-16 00:01N 55°33' W 000°54'1019.1
2019-Jun-15 23:30N 55°40' W 001°05'1019.1
2019-Jun-15 23:00N 55°47' W 001°17'918.5
2019-Jun-15 22:31N 55°52' W 001°31'816.5
2019-Jun-15 22:01N 55°57' W 001°44'5296.5
2019-Jun-15 22:00N 55°54' W 001°36'1428.5 180 / 141009.6 5.4 12.012.011.0
2019-Jun-15 21:30N 56°01' W 001°57'816.5
2019-Jun-15 21:01N 56°04' W 002°11'816.7
2019-Jun-15 20:30N 56°06' W 002°25'816.3
2019-Jun-15 20:01N 56°07' W 002°40'917.3
2019-Jun-15 19:30N 56°04' W 002°55'714.5
2019-Jun-15 19:00N 56°03' W 003°08'713.6
2019-Jun-15 18:31N 56°01' W 003°19'2 3.3
2019-Jun-15 17:57N 56°00' W 003°22'0 0.1
2019-Jun-15 17:30N 56°00' W 003°22'0 0.1
2019-Jun-15 16:51N 56°00' W 003°22'0 0.0
2019-Jun-15 15:09N 56°00' W 003°22'0 0.1
2019-Jun-15 15:00N 56°00' W 003°22'0 0.1
2019-Jun-15 14:24N 56°00' W 003°23'0 0.0
2019-Jun-15 14:00N 56°00' W 003°23'0 0.0
2019-Jun-15 13:27N 56°00' W 003°23'0 0.0
2019-Jun-15 13:00N 56°00' W 003°23'0 0.0
2019-Jun-15 12:30N 56°00' W 003°23'0 0.0
2019-Jun-15 12:00N 56°00' W 003°23'0 0.0
2019-Jun-15 11:30N 56°00' W 003°23'0 0.0
2019-Jun-15 11:00N 56°00' W 003°23'0 0.0
2019-Jun-15 10:30N 56°00' W 003°23'0 0.0
2019-Jun-15 09:57N 56°00' W 003°23'0 0.0
2019-Jun-15 09:30N 56°00' W 003°23'0 0.0
2019-Jun-15 09:00N 56°00' W 003°23'0 0.0
2019-Jun-15 08:30N 56°00' W 003°23'0 0.1
2019-Jun-15 08:00N 56°00' W 003°23'0 0.1
2019-Jun-15 06:54N 56°00' W 003°22'1 3.2
2019-Jun-15 06:29N 56°01' W 003°20'713.8
2019-Jun-15 06:00N 56°03' W 003°09'613.0
2019-Jun-15 05:30N 56°05' W 002°58'612.8
2019-Jun-15 05:00N 56°07' W 002°47'713.1
2019-Jun-15 04:30N 56°09' W 002°36'612.4
2019-Jun-15 04:00N 56°12' W 002°26'612.7
2019-Jun-15 03:30N 56°17' W 002°18'712.6
2019-Jun-15 02:59N 56°22' W 002°12'612.9
2019-Jun-15 02:30N 56°27' W 002°06'713.6
2019-Jun-15 02:00N 56°30' W 001°54'1123.6 110 / 221009.810.8 11.5 9.511.0
2019-Jun-15 01:33N 56°41' W 001°54'116.5
2019-Jun-15 01:31N 56°41' W 001°53'816.3
2019-Jun-15 01:01N 56°49' W 001°48'816.6
2019-Jun-15 00:31N 56°56' W 001°42'1019.4
2019-Jun-15 00:00N 57°05' W 001°35'1019.6
2019-Jun-14 23:31N 57°14' W 001°28'918.0
2019-Jun-14 23:01N 57°23' W 001°23'176.0
2019-Jun-14 23:00N 57°24' W 001°24'714.5 160 / 131011.010.8 10.510.511.0
2019-Jun-14 22:31N 57°30' W 001°31'917.7
2019-Jun-14 22:01N 57°37' W 001°40'1019.5
2019-Jun-14 21:30N 57°45' W 001°52'41 2.1
2019-Jun-14 02:00N 57°54' W 003°06'3210.0 210 / 24998.910.8 9.4 6.411.0
2019-Jun-13 22:46N 58°20' W 002°30'311.6
2019-Jun-13 22:30N 58°23' W 002°31'611.4
2019-Jun-13 22:00N 58°28' W 002°35'611.7
2019-Jun-13 21:30N 58°32' W 002°43'612.5
2019-Jun-13 21:00N 58°36' W 002°52'816.3
2019-Jun-13 20:30N 58°42' W 003°03'917.2
2019-Jun-13 20:00N 58°43' W 003°19'816.6
2019-Jun-13 19:30N 58°43' W 003°35'815.9
2019-Jun-13 19:00N 58°44' W 003°51'301888.5
2019-Jun-13 19:00N 58°42' W 004°48'2245.7 350 / 281000.2 2.2 9.0 9.010.0
2019-Jun-13 18:30N 58°44' W 004°05'815.6
2019-Jun-13 18:00N 58°45' W 004°20'815.5
2019-Jun-13 17:30N 58°45' W 004°35'815.8
2019-Jun-13 16:59N 58°45' W 004°51'2314.2
2019-Jun-13 15:22N 58°32' W 005°27'1614.8
2019-Jun-13 14:18N 58°17' W 005°40'514.6
2019-Jun-13 13:58N 58°13' W 005°44'714.6
2019-Jun-13 13:30N 58°07' W 005°50'1714.6
2019-Jun-13 12:21N 57°52' W 006°03'514.5
2019-Jun-13 12:00N 57°48' W 006°09'1914.5
2019-Jun-13 10:43N 57°38' W 006°39'1520.2
2019-Jun-13 10:00N 57°24' W 006°48'6312.6 360 / 251009.8 5.4 8.0 6.910.0
2019-Jun-13 05:00N 56°24' W 007°24'2810.7 020 / 451013.0 5.4 9.0 4.511.0
2019-Jun-13 02:23N 55°56' W 007°16'512.9
2019-Jun-13 02:01N 55°52' W 007°11'612.4
2019-Jun-13 01:30N 55°47' W 007°06'712.9
2019-Jun-13 01:00N 55°42' W 006°59'713.7
2019-Jun-13 00:30N 55°36' W 006°53'713.8
2019-Jun-13 00:00N 55°30' W 006°46'917.5
2019-Jun-12 23:30N 55°28' W 006°31'816.7
2019-Jun-12 23:00N 55°26' W 006°16'6452.7
2019-Jun-12 23:00N 55°24' W 006°06'2 3.9 020 / 301013.010.8 10.1 9.910.0
2019-Jun-12 22:30N 55°24' W 006°03'816.4
2019-Jun-12 22:00N 55°18' W 005°54'815.3
2019-Jun-12 21:30N 55°14' W 005°42'1515.1
2019-Jun-12 20:30N 55°19' W 005°17'914.9
2019-Jun-12 19:55N 55°23' W 005°03'914.1
2019-Jun-12 19:17N 55°32' W 004°59'518.1
2019-Jun-12 18:59N 55°37' W 004°60'816.8
2019-Jun-12 18:30N 55°45' W 004°59'918.0
2019-Jun-12 18:00N 55°54' W 004°56'612.6
2019-Jun-12 17:30N 55°58' W 004°47'1 2.5
2019-Jun-12 17:00N 55°57' W 004°46'0 0.0
2019-Jun-12 16:30N 55°57' W 004°46'0 0.0
2019-Jun-12 16:00N 55°57' W 004°46'0 0.0
2019-Jun-12 15:30N 55°57' W 004°46'0 0.0
2019-Jun-12 15:00N 55°57' W 004°46'0 0.0
2019-Jun-12 14:30N 55°57' W 004°46'0 0.0
2019-Jun-12 14:00N 55°57' W 004°46'0 0.0
2019-Jun-12 13:30N 55°57' W 004°46'0 0.0
2019-Jun-12 13:00N 55°57' W 004°46'0 0.0
2019-Jun-12 12:30N 55°57' W 004°46'0 0.0
2019-Jun-12 12:00N 55°57' W 004°46'0 0.0
2019-Jun-12 11:30N 55°57' W 004°46'0 0.0
2019-Jun-12 11:00N 55°57' W 004°46'0 0.0
2019-Jun-12 10:30N 55°57' W 004°46'0 0.0
2019-Jun-12 10:00N 55°57' W 004°46'0 0.0
2019-Jun-12 09:30N 55°57' W 004°46'0 0.0
2019-Jun-12 09:00N 55°57' W 004°46'0 0.0
2019-Jun-12 08:30N 55°57' W 004°46'0 0.0
2019-Jun-12 08:00N 55°57' W 004°46'0 0.0
2019-Jun-12 07:30N 55°57' W 004°46'0 0.0
2019-Jun-12 07:00N 55°57' W 004°46'0 0.0
2019-Jun-12 06:30N 55°57' W 004°46'0 0.0
2019-Jun-12 06:01N 55°57' W 004°46'1 1.6
2019-Jun-12 05:30N 55°58' W 004°47'510.1
2019-Jun-12 05:00N 55°56' W 004°55'917.6
2019-Jun-12 04:30N 55°47' W 004°58'714.3
2019-Jun-12 04:00N 55°40' W 004°59'612.9
2019-Jun-12 03:30N 55°33' W 004°58'713.8
2019-Jun-12 02:59N 55°26' W 004°59'1313.4
2019-Jun-12 02:01N 55°17' W 005°14'5161.2
2019-Jun-12 02:00N 55°12' W 005°12'612.1 030 / 231018.410.8 12.1 6.714.0
2019-Jun-12 01:28N 55°12' W 005°23'714.1
2019-Jun-12 00:59N 55°11' W 005°35'613.2
2019-Jun-12 00:31N 55°06' W 005°40'714.1
2019-Jun-12 00:00N 55°00' W 005°32'713.9
2019-Jun-11 23:30N 54°55' W 005°24'714.4
2019-Jun-11 23:00N 54°48' W 005°19'715.1
2019-Jun-11 22:30N 54°43' W 005°11'4 8.7
2019-Jun-11 22:01N 54°43' W 005°18'714.5
2019-Jun-11 21:30N 54°48' W 005°26'816.3
2019-Jun-11 21:00N 54°44' W 005°38'713.8
2019-Jun-11 20:31N 54°41' W 005°49'4 7.4
2019-Jun-11 19:59N 54°38' W 005°53'0 0.0
2019-Jun-11 19:29N 54°38' W 005°53'0 0.0
2019-Jun-11 18:59N 54°38' W 005°53'0 0.0
2019-Jun-11 18:29N 54°38' W 005°53'0 0.0
2019-Jun-11 17:59N 54°38' W 005°53'0 0.0
2019-Jun-11 17:29N 54°38' W 005°53'0 0.0
2019-Jun-11 16:59N 54°38' W 005°53'0 0.0
2019-Jun-11 16:29N 54°38' W 005°53'0 0.0
2019-Jun-11 15:59N 54°38' W 005°53'0 0.0
2019-Jun-11 15:29N 54°38' W 005°53'0 0.0
2019-Jun-11 14:59N 54°38' W 005°53'0 0.0
2019-Jun-11 14:29N 54°38' W 005°53'0 0.0
2019-Jun-11 13:59N 54°38' W 005°53'0 0.0
2019-Jun-11 13:29N 54°38' W 005°53'0 0.0
2019-Jun-11 12:59N 54°38' W 005°53'0 0.0
2019-Jun-11 12:29N 54°38' W 005°53'0 0.0
2019-Jun-11 11:59N 54°38' W 005°53'0 0.0
2019-Jun-11 11:29N 54°38' W 005°53'0 0.0
2019-Jun-11 10:59N 54°38' W 005°53'0 0.0
2019-Jun-11 10:29N 54°38' W 005°53'0 0.0
2019-Jun-11 09:59N 54°38' W 005°53'0 0.0
2019-Jun-11 09:29N 54°38' W 005°53'0 0.0
2019-Jun-11 08:59N 54°38' W 005°53'0 0.0
2019-Jun-11 08:29N 54°38' W 005°53'0 0.0
2019-Jun-11 07:59N 54°38' W 005°53'0 0.0
2019-Jun-11 07:29N 54°38' W 005°53'0 0.0
2019-Jun-11 06:59N 54°38' W 005°53'0 0.0
2019-Jun-11 06:29N 54°38' W 005°53'0 0.0
2019-Jun-11 05:59N 54°38' W 005°53'1 1.7
2019-Jun-11 05:29N 54°38' W 005°52'611.7
2019-Jun-11 05:00N 54°42' W 005°45'612.9
2019-Jun-11 04:30N 54°44' W 005°35'816.7
2019-Jun-11 04:00N 54°44' W 005°20'815.8
2019-Jun-11 03:30N 54°38' W 005°12'714.5
2019-Jun-11 03:00N 54°32' W 005°06'714.8
2019-Jun-11 02:30N 54°25' W 005°01'713.3
2019-Jun-11 02:00N 54°18' W 005°04'2149.4
2019-Jun-11 02:00N 54°18' W 005°00'613.3 020 / 171020.010.8 12.010.113.0
2019-Jun-11 01:30N 54°13' W 005°07'610.9
2019-Jun-11 01:00N 54°08' W 005°11'3315.5
2019-Jun-10 22:51N 53°50' W 004°24'615.2
2019-Jun-10 22:29N 53°48' W 004°15'815.6
2019-Jun-10 22:00N 53°45' W 004°03'1019.1
2019-Jun-10 21:30N 53°41' W 003°49'918.3
2019-Jun-10 21:00N 53°37' W 003°35'917.4
2019-Jun-10 20:30N 53°33' W 003°22'612.2
2019-Jun-10 20:00N 53°31' W 003°12'511.0
2019-Jun-10 19:30N 53°29' W 003°04'5 9.0
2019-Jun-10 18:58N 53°24' W 003°00'0 0.0
2019-Jun-10 18:28N 53°24' W 003°00'0 0.0
2019-Jun-10 17:58N 53°24' W 003°00'0 0.0
2019-Jun-10 17:28N 53°24' W 003°00'0 0.0
2019-Jun-10 16:58N 53°24' W 003°00'0 0.0
2019-Jun-10 16:28N 53°24' W 003°00'0 0.0
2019-Jun-10 15:58N 53°24' W 003°00'0 0.0
2019-Jun-10 15:28N 53°24' W 003°00'0 0.0
2019-Jun-10 14:58N 53°24' W 003°00'0 0.0
2019-Jun-10 14:28N 53°24' W 003°00'0 0.0
2019-Jun-10 13:58N 53°24' W 003°00'0 0.0
2019-Jun-10 13:28N 53°24' W 003°00'0 0.0
2019-Jun-10 12:58N 53°24' W 003°00'0 0.0
2019-Jun-10 12:28N 53°24' W 003°00'0 0.0
2019-Jun-10 11:58N 53°24' W 003°00'0 0.0
2019-Jun-10 11:28N 53°24' W 003°00'0 0.0
2019-Jun-10 10:58N 53°24' W 003°00'0 0.0
2019-Jun-10 10:28N 53°24' W 003°00'0 0.0
2019-Jun-10 09:58N 53°24' W 003°00'0 0.0
2019-Jun-10 09:28N 53°24' W 003°00'1 2.9
2019-Jun-10 09:00N 53°26' W 003°01'510.5
2019-Jun-10 08:30N 53°30' W 003°06'5 9.4
2019-Jun-10 08:00N 53°31' W 003°14'612.9
2019-Jun-10 07:31N 53°31' W 003°24'815.8
2019-Jun-10 07:00N 53°31' W 003°38'917.6
2019-Jun-10 06:30N 53°31' W 003°53'917.6
2019-Jun-10 06:00N 53°31' W 004°07'917.4
2019-Jun-10 05:30N 53°31' W 004°22'3216.7
2019-Jun-10 03:34N 53°21' W 005°14'117.5
2019-Jun-10 03:30N 53°20' W 005°15'918.5
2019-Jun-10 03:00N 53°20' W 005°31'918.7
2019-Jun-10 02:30N 53°20' W 005°46'918.0
2019-Jun-10 02:00N 53°21' W 006°02'510.9
2019-Jun-10 01:30N 53°21' W 006°11'1 2.1
2019-Jun-10 00:54N 53°21' W 006°13'0 0.0
2019-Jun-10 00:24N 53°21' W 006°13'0 0.0
2019-Jun-09 23:54N 53°21' W 006°13'0 0.0
2019-Jun-09 23:21N 53°21' W 006°13'0 0.0
2019-Jun-09 22:58N 53°21' W 006°13'0 0.0
2019-Jun-09 22:28N 53°21' W 006°13'0 0.0
2019-Jun-09 21:58N 53°21' W 006°13'0 0.0
2019-Jun-09 21:30N 53°21' W 006°13'0 0.0
2019-Jun-09 21:00N 53°21' W 006°13'0 0.0
2019-Jun-09 20:30N 53°21' W 006°13'0 0.0
2019-Jun-09 20:00N 53°21' W 006°13'0 0.0
2019-Jun-09 19:30N 53°21' W 006°13'0 0.0
2019-Jun-09 19:00N 53°21' W 006°13'0 0.0
2019-Jun-09 18:24N 53°21' W 006°13'0 0.0
2019-Jun-09 17:54N 53°21' W 006°13'0 0.0
2019-Jun-09 17:21N 53°21' W 006°13'0 0.0
2019-Jun-09 16:51N 53°21' W 006°13'0 0.0
2019-Jun-09 16:28N 53°21' W 006°13'0 0.0
2019-Jun-09 15:58N 53°21' W 006°13'0 0.0
2019-Jun-09 15:28N 53°21' W 006°13'0 0.0
2019-Jun-09 14:58N 53°21' W 006°13'0 0.0
2019-Jun-09 14:30N 53°21' W 006°13'0 0.0
2019-Jun-09 14:00N 53°21' W 006°13'1 2.1
2019-Jun-09 13:30N 53°21' W 006°11'5 9.6
2019-Jun-09 13:00N 53°21' W 006°03'4 8.3
2019-Jun-09 12:30N 53°20' W 005°56'510.8
2019-Jun-09 12:00N 53°17' W 005°48'510.2
2019-Jun-09 11:30N 53°15' W 005°40'510.7
2019-Jun-09 11:00N 53°12' W 005°34'612.0
2019-Jun-09 10:30N 53°06' W 005°34'611.6
2019-Jun-09 10:00N 52°60' W 005°35'612.2
2019-Jun-09 09:30N 52°54' W 005°35'612.1
2019-Jun-09 09:00N 52°48' W 005°38'612.2
2019-Jun-09 08:30N 52°42' W 005°40'611.8
2019-Jun-09 08:00N 52°36' W 005°43'611.8
2019-Jun-09 07:30N 52°31' W 005°45'611.4
2019-Jun-09 07:00N 52°25' W 005°48'166.4
2019-Jun-09 07:00N 52°24' W 005°48'5 9.5 240 / 51019.310.8 16.513.911.0
2019-Jun-09 06:30N 52°20' W 005°51'510.9
2019-Jun-09 06:00N 52°15' W 005°54'510.9
2019-Jun-09 05:30N 52°10' W 005°58'510.8
2019-Jun-09 05:00N 52°05' W 006°03'1111.2
2019-Jun-09 04:00N 52°00' W 006°20'611.1
2019-Jun-09 03:30N 51°58' W 006°27'611.1
2019-Jun-09 03:00N 51°55' W 006°35'8 8.0
2019-Jun-09 02:00N 51°48' W 006°42'1126.5 270 / 121015.510.8 15.013.214.0
2019-Jun-09 01:36N 51°48' W 006°59'111.2
2019-Jun-09 01:31N 51°48' W 007°01'510.9
2019-Jun-09 01:00N 51°46' W 007°09'511.0
2019-Jun-09 00:30N 51°45' W 007°17'611.1
2019-Jun-09 00:00N 51°43' W 007°26'611.1
2019-Jun-08 23:30N 51°41' W 007°34'611.1
2019-Jun-08 23:01N 51°39' W 007°43'611.3
2019-Jun-08 22:30N 51°41' W 007°52'611.6
2019-Jun-08 22:00N 51°42' W 008°01'611.7
2019-Jun-08 21:30N 51°44' W 008°10'510.3
2019-Jun-08 21:00N 51°48' W 008°16'3 6.9
2019-Jun-08 20:30N 51°51' W 008°18'0 0.3
2019-Jun-08 20:00N 51°51' W 008°18'0 0.0
2019-Jun-08 19:28N 51°51' W 008°18'0 0.0
2019-Jun-08 19:00N 51°51' W 008°18'0 0.0
2019-Jun-08 18:30N 51°51' W 008°18'0 0.0
2019-Jun-08 18:00N 51°51' W 008°18'0 0.0
2019-Jun-08 17:30N 51°51' W 008°18'0 0.0
2019-Jun-08 17:00N 51°51' W 008°18'0 0.0
2019-Jun-08 16:30N 51°51' W 008°18'0 0.0
2019-Jun-08 16:00N 51°51' W 008°18'0 0.0
2019-Jun-08 15:30N 51°51' W 008°18'0 0.0
2019-Jun-08 15:00N 51°51' W 008°18'0 0.0
2019-Jun-08 14:30N 51°51' W 008°18'0 0.0
2019-Jun-08 14:00N 51°51' W 008°18'0 0.0
2019-Jun-08 13:30N 51°51' W 008°18'0 0.0
2019-Jun-08 13:00N 51°51' W 008°18'0 0.0
2019-Jun-08 12:30N 51°51' W 008°18'0 0.0
2019-Jun-08 12:00N 51°51' W 008°18'0 0.0
2019-Jun-08 11:30N 51°51' W 008°18'0 0.0
2019-Jun-08 11:00N 51°51' W 008°18'0 0.0
2019-Jun-08 10:30N 51°51' W 008°18'0 0.0
2019-Jun-08 10:00N 51°51' W 008°18'0 0.0
2019-Jun-08 09:30N 51°51' W 008°18'0 0.0
2019-Jun-08 09:00N 51°51' W 008°18'0 0.0
2019-Jun-08 08:30N 51°51' W 008°18'0 0.0
2019-Jun-08 08:00N 51°51' W 008°18'0 0.0
2019-Jun-08 07:30N 51°51' W 008°18'0 0.0
2019-Jun-08 07:00N 51°51' W 008°18'0 0.4
2019-Jun-08 06:31N 51°51' W 008°18'1 1.8
2019-Jun-08 06:01N 51°51' W 008°17'510.8
2019-Jun-08 05:30N 51°46' W 008°15'510.1
2019-Jun-08 05:00N 51°41' W 008°11'612.5
2019-Jun-08 04:30N 51°37' W 008°04'612.9
2019-Jun-08 04:00N 51°33' W 007°56'713.8
2019-Jun-08 03:30N 51°28' W 007°48'714.0
2019-Jun-08 03:01N 51°23' W 007°40'713.8
2019-Jun-08 02:30N 51°19' W 007°32'815.7
2019-Jun-08 02:00N 51°12' W 007°24'3611.9 290 / 331007.810.8 13.011.114.0
2019-Jun-07 23:00N 50°48' W 006°42'4010.6 290 / 301004.710.8 14.012.214.0
2019-Jun-07 19:14N 50°22' W 005°55'2293.3
2019-Jun-07 19:00N 50°00' W 005°48'49 7.2 320 / 401005.6 5.4 12.011.012.0
2019-Jun-07 12:17N 49°42' W 004°38'512.2
2019-Jun-07 11:53N 49°41' W 004°31'512.2
2019-Jun-07 11:27N 49°39' W 004°23'612.3
2019-Jun-07 11:00N 49°38' W 004°15'3182.0
2019-Jun-07 11:00N 49°36' W 004°12'4 7.9 110 / 20989.6 5.4 16.514.813.0
2019-Jun-07 10:31N 49°36' W 004°06'611.9
2019-Jun-07 10:00N 49°35' W 003°57'611.5
2019-Jun-07 09:30N 49°34' W 003°48'611.3
2019-Jun-07 09:00N 49°32' W 003°40'611.0
2019-Jun-07 08:30N 49°30' W 003°32'815.9
2019-Jun-07 08:00N 49°30' W 003°20'1015.9
2019-Jun-07 07:23N 49°27' W 003°05'616.9
2019-Jun-07 07:00N 49°26' W 002°55'816.2
2019-Jun-07 06:31N 49°24' W 002°43'714.5
2019-Jun-07 06:00N 49°23' W 002°32'2 4.6
2019-Jun-07 05:30N 49°25' W 002°29'3 5.9
2019-Jun-07 05:01N 49°22' W 002°32'510.6
2019-Jun-07 04:31N 49°24' W 002°40'612.0
2019-Jun-07 04:00N 49°26' W 002°48'510.5
2019-Jun-07 03:30N 49°29' W 002°55'612.7
2019-Jun-07 03:00N 49°35' W 002°56'612.8
2019-Jun-07 02:30N 49°42' W 002°57'713.6
2019-Jun-07 02:01N 49°48' W 002°58'816.0
2019-Jun-07 01:31N 49°56' W 002°58'918.3
2019-Jun-07 01:01N 49°59' W 002°44'917.9
2019-Jun-07 00:30N 50°02' W 002°31'816.9
2019-Jun-07 00:01N 50°04' W 002°18'816.0
2019-Jun-06 23:30N 50°07' W 002°06'815.3
2019-Jun-06 23:00N 50°10' W 001°56'714.7
2019-Jun-06 22:31N 50°13' W 001°45'  

Dump ship's entire track history